sensor_id;sensor_type;location;lat;lon;timestamp;temperature;humidity
6008;DHT22;3032;49.484;11.112;2023-04-05T00:00:25;1.90;92.20
6008;DHT22;3032;49.484;11.112;2023-04-05T00:02:50;2.30;92.70
6008;DHT22;3032;49.484;11.112;2023-04-05T00:05:17;2.20;92.40
6008;DHT22;3032;49.484;11.112;2023-04-05T00:07:53;2.40;91.90
6008;DHT22;3032;49.484;11.112;2023-04-05T00:10:19;2.50;91.60
6008;DHT22;3032;49.484;11.112;2023-04-05T00:12:45;2.50;91.70
6008;DHT22;3032;49.484;11.112;2023-04-05T00:15:10;2.30;91.30
6008;DHT22;3032;49.484;11.112;2023-04-05T00:17:36;2.10;91.90
6008;DHT22;3032;49.484;11.112;2023-04-05T00:20:01;2.10;92.40
6008;DHT22;3032;49.484;11.112;2023-04-05T00:22:32;2.10;92.80
6008;DHT22;3032;49.484;11.112;2023-04-05T00:25:01;2.00;93.30
6008;DHT22;3032;49.484;11.112;2023-04-05T00:27:26;1.90;93.70
6008;DHT22;3032;49.484;11.112;2023-04-05T00:29:52;1.70;94.40
6008;DHT22;3032;49.484;11.112;2023-04-05T00:32:18;1.70;94.50
6008;DHT22;3032;49.484;11.112;2023-04-05T00:34:43;1.60;94.70
6008;DHT22;3032;49.484;11.112;2023-04-05T00:37:09;1.60;95.20
6008;DHT22;3032;49.484;11.112;2023-04-05T00:39:35;1.40;95.80
6008;DHT22;3032;49.484;11.112;2023-04-05T00:42:03;1.50;96.10
6008;DHT22;3032;49.484;11.112;2023-04-05T00:44:30;1.50;96.00
6008;DHT22;3032;49.484;11.112;2023-04-05T00:47:04;1.10;97.30
6008;DHT22;3032;49.484;11.112;2023-04-05T00:49:31;1.10;97.30
6008;DHT22;3032;49.484;11.112;2023-04-05T00:51:57;1.20;97.60
6008;DHT22;3032;49.484;11.112;2023-04-05T00:54:24;1.30;97.60
6008;DHT22;3032;49.484;11.112;2023-04-05T00:56:50;1.40;96.60
6008;DHT22;3032;49.484;11.112;2023-04-05T00:59:19;1.70;96.10
6008;DHT22;3032;49.484;11.112;2023-04-05T01:01:46;1.70;95.20
6008;DHT22;3032;49.484;11.112;2023-04-05T01:04:22;1.40;95.70
6008;DHT22;3032;49.484;11.112;2023-04-05T01:07:12;1.30;96.60
6008;DHT22;3032;49.484;11.112;2023-04-05T01:09:56;1.40;96.90
6008;DHT22;3032;49.484;11.112;2023-04-05T01:12:25;1.40;96.60
6008;DHT22;3032;49.484;11.112;2023-04-05T01:14:52;1.30;97.20
6008;DHT22;3032;49.484;11.112;2023-04-05T01:17:21;1.10;97.40
6008;DHT22;3032;49.484;11.112;2023-04-05T01:19:49;1.00;98.00
6008;DHT22;3032;49.484;11.112;2023-04-05T01:30:41;0.80;99.90
6008;DHT22;3032;49.484;11.112;2023-04-05T01:33:37;0.70;99.90
6008;DHT22;3032;49.484;11.112;2023-04-05T01:36:24;0.60;99.90
6008;DHT22;3032;49.484;11.112;2023-04-05T01:38:53;0.60;99.90
6008;DHT22;3032;49.484;11.112;2023-04-05T01:41:18;0.40;99.90
6008;DHT22;3032;49.484;11.112;2023-04-05T01:43:45;0.30;99.90
6008;DHT22;3032;49.484;11.112;2023-04-05T01:46:11;0.30;99.90
6008;DHT22;3032;49.484;11.112;2023-04-05T01:48:36;0.40;99.90
6008;DHT22;3032;49.484;11.112;2023-04-05T01:51:02;0.40;99.90
6008;DHT22;3032;49.484;11.112;2023-04-05T01:53:28;0.40;99.90
6008;DHT22;3032;49.484;11.112;2023-04-05T01:55:53;0.40;99.90
6008;DHT22;3032;49.484;11.112;2023-04-05T01:58:23;0.40;99.90
6008;DHT22;3032;49.484;11.112;2023-04-05T02:00:51;0.20;99.90
6008;DHT22;3032;49.484;11.112;2023-04-05T02:03:18;0.20;99.90
6008;DHT22;3032;49.484;11.112;2023-04-05T02:05:43;0.40;99.90
6008;DHT22;3032;49.484;11.112;2023-04-05T02:08:09;0.30;99.90
6008;DHT22;3032;49.484;11.112;2023-04-05T02:10:34;0.30;99.90
6008;DHT22;3032;49.484;11.112;2023-04-05T02:13:00;0.50;99.90
6008;DHT22;3032;49.484;11.112;2023-04-05T02:15:25;0.70;99.90
6008;DHT22;3032;49.484;11.112;2023-04-05T02:17:51;1.00;99.90
6008;DHT22;3032;49.484;11.112;2023-04-05T02:20:18;1.20;99.00
6008;DHT22;3032;49.484;11.112;2023-04-05T02:22:44;1.20;98.50
6008;DHT22;3032;49.484;11.112;2023-04-05T02:25:11;1.20;99.00
6008;DHT22;3032;49.484;11.112;2023-04-05T02:27:37;1.30;98.40
6008;DHT22;3032;49.484;11.112;2023-04-05T02:30:04;1.30;98.10
6008;DHT22;3032;49.484;11.112;2023-04-05T02:32:29;1.20;98.30
6008;DHT22;3032;49.484;11.112;2023-04-05T02:34:56;1.10;98.90
6008;DHT22;3032;49.484;11.112;2023-04-05T02:37:22;1.10;98.80
6008;DHT22;3032;49.484;11.112;2023-04-05T02:39:50;0.80;99.80
6008;DHT22;3032;49.484;11.112;2023-04-05T02:42:15;1.00;99.90
6008;DHT22;3032;49.484;11.112;2023-04-05T02:44:41;1.10;99.20
6008;DHT22;3032;49.484;11.112;2023-04-05T02:47:06;1.20;98.80
6008;DHT22;3032;49.484;11.112;2023-04-05T02:49:32;1.30;98.40
6008;DHT22;3032;49.484;11.112;2023-04-05T02:51:57;1.40;98.00
6008;DHT22;3032;49.484;11.112;2023-04-05T02:54:23;1.30;98.10
6008;DHT22;3032;49.484;11.112;2023-04-05T02:56:49;1.20;98.40
6008;DHT22;3032;49.484;11.112;2023-04-05T02:59:15;0.70;99.80
6008;DHT22;3032;49.484;11.112;2023-04-05T03:01:41;0.70;99.90
6008;DHT22;3032;49.484;11.112;2023-04-05T03:04:09;0.60;99.90
6008;DHT22;3032;49.484;11.112;2023-04-05T03:06:36;0.50;99.90
6008;DHT22;3032;49.484;11.112;2023-04-05T03:09:03;0.50;99.90
6008;DHT22;3032;49.484;11.112;2023-04-05T03:11:29;0.70;99.90
6008;DHT22;3032;49.484;11.112;2023-04-05T03:13:54;1.00;99.90
6008;DHT22;3032;49.484;11.112;2023-04-05T03:16:20;1.20;99.80
6008;DHT22;3032;49.484;11.112;2023-04-05T03:18:47;1.40;99.50
6008;DHT22;3032;49.484;11.112;2023-04-05T03:21:13;1.40;99.50
6008;DHT22;3032;49.484;11.112;2023-04-05T03:23:42;1.50;99.20
6008;DHT22;3032;49.484;11.112;2023-04-05T03:26:11;1.50;98.80
6008;DHT22;3032;49.484;11.112;2023-04-05T03:28:37;1.50;98.30
6008;DHT22;3032;49.484;11.112;2023-04-05T03:31:03;1.50;98.20
6008;DHT22;3032;49.484;11.112;2023-04-05T03:33:28;1.50;98.40
6008;DHT22;3032;49.484;11.112;2023-04-05T03:35:54;1.50;98.70
6008;DHT22;3032;49.484;11.112;2023-04-05T03:38:19;1.50;98.80
6008;DHT22;3032;49.484;11.112;2023-04-05T03:40:45;1.50;99.10
6008;DHT22;3032;49.484;11.112;2023-04-05T03:43:11;1.50;99.10
6008;DHT22;3032;49.484;11.112;2023-04-05T03:45:37;1.80;99.40
6008;DHT22;3032;49.484;11.112;2023-04-05T03:48:03;1.50;99.40
6008;DHT22;3032;49.484;11.112;2023-04-05T03:50:29;1.40;99.70
6008;DHT22;3032;49.484;11.112;2023-04-05T03:52:54;1.40;99.90
6008;DHT22;3032;49.484;11.112;2023-04-05T03:55:20;1.50;99.90
6008;DHT22;3032;49.484;11.112;2023-04-05T03:57:46;1.30;99.90
6008;DHT22;3032;49.484;11.112;2023-04-05T04:00:12;1.40;99.90
6008;DHT22;3032;49.484;11.112;2023-04-05T04:02:43;1.40;99.90
6008;DHT22;3032;49.484;11.112;2023-04-05T04:05:10;1.30;99.90
6008;DHT22;3032;49.484;11.112;2023-04-05T04:07:36;1.30;99.90
6008;DHT22;3032;49.484;11.112;2023-04-05T04:10:05;1.20;99.90
6008;DHT22;3032;49.484;11.112;2023-04-05T04:12:31;1.10;99.90
6008;DHT22;3032;49.484;11.112;2023-04-05T04:14:56;1.10;99.90
6008;DHT22;3032;49.484;11.112;2023-04-05T04:17:31;1.00;99.90
6008;DHT22;3032;49.484;11.112;2023-04-05T04:19:57;1.40;99.90
6008;DHT22;3032;49.484;11.112;2023-04-05T04:22:24;1.00;99.90
6008;DHT22;3032;49.484;11.112;2023-04-05T04:24:53;0.40;99.90
6008;DHT22;3032;49.484;11.112;2023-04-05T04:27:19;0.20;99.90
6008;DHT22;3032;49.484;11.112;2023-04-05T04:29:46;0.20;99.90
6008;DHT22;3032;49.484;11.112;2023-04-05T04:32:13;0.40;99.90
6008;DHT22;3032;49.484;11.112;2023-04-05T04:34:40;0.50;99.90
6008;DHT22;3032;49.484;11.112;2023-04-05T04:37:12;0.50;99.90
6008;DHT22;3032;49.484;11.112;2023-04-05T04:39:44;0.50;99.90
6008;DHT22;3032;49.484;11.112;2023-04-05T04:42:10;0.50;99.90
6008;DHT22;3032;49.484;11.112;2023-04-05T04:44:36;0.60;99.90
6008;DHT22;3032;49.484;11.112;2023-04-05T04:47:01;0.50;99.90
6008;DHT22;3032;49.484;11.112;2023-04-05T04:49:28;0.50;99.90
6008;DHT22;3032;49.484;11.112;2023-04-05T04:51:54;0.50;99.90
6008;DHT22;3032;49.484;11.112;2023-04-05T04:54:22;0.50;99.90
6008;DHT22;3032;49.484;11.112;2023-04-05T04:56:48;0.60;99.90
6008;DHT22;3032;49.484;11.112;2023-04-05T04:59:13;0.70;99.90
6008;DHT22;3032;49.484;11.112;2023-04-05T05:01:40;0.70;99.90
6008;DHT22;3032;49.484;11.112;2023-04-05T05:04:09;0.70;99.90
6008;DHT22;3032;49.484;11.112;2023-04-05T05:06:34;0.80;99.90
6008;DHT22;3032;49.484;11.112;2023-04-05T05:09:00;0.90;99.90
6008;DHT22;3032;49.484;11.112;2023-04-05T05:11:25;0.90;99.90
6008;DHT22;3032;49.484;11.112;2023-04-05T05:13:53;1.00;99.90
6008;DHT22;3032;49.484;11.112;2023-04-05T05:16:18;1.10;99.90
6008;DHT22;3032;49.484;11.112;2023-04-05T05:18:46;1.10;99.90
6008;DHT22;3032;49.484;11.112;2023-04-05T05:21:12;1.10;99.90
6008;DHT22;3032;49.484;11.112;2023-04-05T05:23:38;1.10;99.90
6008;DHT22;3032;49.484;11.112;2023-04-05T05:26:04;1.20;99.90
6008;DHT22;3032;49.484;11.112;2023-04-05T05:28:29;1.30;99.90
6008;DHT22;3032;49.484;11.112;2023-04-05T05:30:55;1.40;99.90
6008;DHT22;3032;49.484;11.112;2023-04-05T05:33:20;1.60;99.90
6008;DHT22;3032;49.484;11.112;2023-04-05T05:35:49;1.70;99.90
6008;DHT22;3032;49.484;11.112;2023-04-05T05:38:16;2.00;99.90
6008;DHT22;3032;49.484;11.112;2023-04-05T05:40:42;3.00;99.90
6008;DHT22;3032;49.484;11.112;2023-04-05T05:43:07;4.50;97.70
6008;DHT22;3032;49.484;11.112;2023-04-05T05:45:34;5.80;94.80
6008;DHT22;3032;49.484;11.112;2023-04-05T05:48:00;6.20;92.50
6008;DHT22;3032;49.484;11.112;2023-04-05T05:50:26;6.20;91.00
6008;DHT22;3032;49.484;11.112;2023-04-05T05:52:52;6.00;90.70
6008;DHT22;3032;49.484;11.112;2023-04-05T05:55:17;5.90;90.70
6008;DHT22;3032;49.484;11.112;2023-04-05T05:57:43;5.80;90.00
6008;DHT22;3032;49.484;11.112;2023-04-05T06:00:09;5.80;90.30
6008;DHT22;3032;49.484;11.112;2023-04-05T06:02:35;5.70;89.90
6008;DHT22;3032;49.484;11.112;2023-04-05T06:05:01;5.60;90.70
6008;DHT22;3032;49.484;11.112;2023-04-05T06:07:27;5.30;90.00
6008;DHT22;3032;49.484;11.112;2023-04-05T06:09:52;5.00;90.30
6008;DHT22;3032;49.484;11.112;2023-04-05T06:12:21;4.50;90.40
6008;DHT22;3032;49.484;11.112;2023-04-05T06:14:47;4.20;91.20
6008;DHT22;3032;49.484;11.112;2023-04-05T06:17:12;4.20;91.20
6008;DHT22;3032;49.484;11.112;2023-04-05T06:19:38;3.80;91.70
6008;DHT22;3032;49.484;11.112;2023-04-05T06:22:03;3.10;93.20
6008;DHT22;3032;49.484;11.112;2023-04-05T06:24:29;3.00;93.70
6008;DHT22;3032;49.484;11.112;2023-04-05T06:26:57;3.20;94.00
6008;DHT22;3032;49.484;11.112;2023-04-05T06:29:23;3.20;94.00
6008;DHT22;3032;49.484;11.112;2023-04-05T06:31:48;3.70;93.70
6008;DHT22;3032;49.484;11.112;2023-04-05T06:34:14;4.40;92.20
6008;DHT22;3032;49.484;11.112;2023-04-05T06:36:39;4.90;92.20
6008;DHT22;3032;49.484;11.112;2023-04-05T06:39:05;6.30;90.70
6008;DHT22;3032;49.484;11.112;2023-04-05T06:41:31;8.30;88.00
6008;DHT22;3032;49.484;11.112;2023-04-05T06:43:56;10.20;76.50
6008;DHT22;3032;49.484;11.112;2023-04-05T06:46:22;9.80;71.90
6008;DHT22;3032;49.484;11.112;2023-04-05T06:48:49;9.40;72.30
6008;DHT22;3032;49.484;11.112;2023-04-05T06:51:15;9.60;71.00
6008;DHT22;3032;49.484;11.112;2023-04-05T06:53:41;8.80;71.70
6008;DHT22;3032;49.484;11.112;2023-04-05T06:56:07;8.80;70.30
6008;DHT22;3032;49.484;11.112;2023-04-05T06:58:32;8.60;69.40
6008;DHT22;3032;49.484;11.112;2023-04-05T07:00:59;6.50;71.90
6008;DHT22;3032;49.484;11.112;2023-04-05T07:03:25;6.50;74.90
6008;DHT22;3032;49.484;11.112;2023-04-05T07:05:55;7.00;74.50
6008;DHT22;3032;49.484;11.112;2023-04-05T07:08:22;7.00;73.90
6008;DHT22;3032;49.484;11.112;2023-04-05T07:10:48;7.20;74.30
6008;DHT22;3032;49.484;11.112;2023-04-05T07:13:14;7.40;73.40
6008;DHT22;3032;49.484;11.112;2023-04-05T07:15:41;7.90;72.80
6008;DHT22;3032;49.484;11.112;2023-04-05T07:18:07;7.20;70.90
6008;DHT22;3032;49.484;11.112;2023-04-05T07:20:33;6.60;73.30
6008;DHT22;3032;49.484;11.112;2023-04-05T07:22:59;6.60;74.30
6008;DHT22;3032;49.484;11.112;2023-04-05T07:25:24;7.00;74.50
6008;DHT22;3032;49.484;11.112;2023-04-05T07:27:50;7.70;73.20
6008;DHT22;3032;49.484;11.112;2023-04-05T07:30:17;9.90;71.00
6008;DHT22;3032;49.484;11.112;2023-04-05T07:32:42;10.80;63.70
6008;DHT22;3032;49.484;11.112;2023-04-05T07:35:08;11.60;64.20
6008;DHT22;3032;49.484;11.112;2023-04-05T07:37:34;12.70;61.00
6008;DHT22;3032;49.484;11.112;2023-04-05T07:40:00;14.10;58.00
6008;DHT22;3032;49.484;11.112;2023-04-05T07:42:26;15.50;54.80
6008;DHT22;3032;49.484;11.112;2023-04-05T07:44:52;16.80;50.20
6008;DHT22;3032;49.484;11.112;2023-04-05T07:47:18;17.30;48.80
6008;DHT22;3032;49.484;11.112;2023-04-05T07:49:43;17.40;46.90
6008;DHT22;3032;49.484;11.112;2023-04-05T07:52:09;17.00;46.70
6008;DHT22;3032;49.484;11.112;2023-04-05T07:54:35;16.00;48.50
6008;DHT22;3032;49.484;11.112;2023-04-05T07:57:04;17.20;47.00
6008;DHT22;3032;49.484;11.112;2023-04-05T07:59:29;17.20;45.20
6008;DHT22;3032;49.484;11.112;2023-04-05T08:01:55;17.30;45.00
6008;DHT22;3032;49.484;11.112;2023-04-05T08:04:21;18.80;45.40
6008;DHT22;3032;49.484;11.112;2023-04-05T08:06:47;19.70;43.90
6008;DHT22;3032;49.484;11.112;2023-04-05T08:09:13;18.10;40.60
6008;DHT22;3032;49.484;11.112;2023-04-05T08:11:38;17.20;42.10
6008;DHT22;3032;49.484;11.112;2023-04-05T08:14:04;16.70;43.20
6008;DHT22;3032;49.484;11.112;2023-04-05T08:16:30;16.50;43.20
6008;DHT22;3032;49.484;11.112;2023-04-05T08:18:56;16.20;43.40
6008;DHT22;3032;49.484;11.112;2023-04-05T08:21:22;16.40;43.00
6008;DHT22;3032;49.484;11.112;2023-04-05T08:23:48;18.30;41.60
6008;DHT22;3032;49.484;11.112;2023-04-05T08:26:14;18.40;40.90
6008;DHT22;3032;49.484;11.112;2023-04-05T08:28:40;18.90;40.40
6008;DHT22;3032;49.484;11.112;2023-04-05T08:31:05;19.00;39.50
6008;DHT22;3032;49.484;11.112;2023-04-05T08:33:31;18.80;38.90
6008;DHT22;3032;49.484;11.112;2023-04-05T08:35:57;18.10;38.90
6008;DHT22;3032;49.484;11.112;2023-04-05T08:38:27;19.40;39.40
6008;DHT22;3032;49.484;11.112;2023-04-05T08:40:53;18.00;38.40
6008;DHT22;3032;49.484;11.112;2023-04-05T08:43:38;18.80;37.00
6008;DHT22;3032;49.484;11.112;2023-04-05T08:46:08;18.50;36.80
6008;DHT22;3032;49.484;11.112;2023-04-05T08:48:34;17.90;36.50
6008;DHT22;3032;49.484;11.112;2023-04-05T08:51:00;18.10;36.60
6008;DHT22;3032;49.484;11.112;2023-04-05T08:53:26;18.30;36.50
6008;DHT22;3032;49.484;11.112;2023-04-05T08:55:54;18.00;36.30
6008;DHT22;3032;49.484;11.112;2023-04-05T08:58:21;17.00;35.20
6008;DHT22;3032;49.484;11.112;2023-04-05T09:00:49;15.90;36.80
6008;DHT22;3032;49.484;11.112;2023-04-05T09:03:19;16.30;38.20
6008;DHT22;3032;49.484;11.112;2023-04-05T09:05:49;15.30;36.20
6008;DHT22;3032;49.484;11.112;2023-04-05T09:08:15;15.70;37.10
6008;DHT22;3032;49.484;11.112;2023-04-05T09:10:41;16.30;37.90
6008;DHT22;3032;49.484;11.112;2023-04-05T09:13:07;16.10;36.40
6008;DHT22;3032;49.484;11.112;2023-04-05T09:15:36;17.00;36.70
6008;DHT22;3032;49.484;11.112;2023-04-05T09:18:02;17.80;36.50
6008;DHT22;3032;49.484;11.112;2023-04-05T09:20:27;17.40;37.50
6008;DHT22;3032;49.484;11.112;2023-04-05T09:22:55;17.40;37.90
6008;DHT22;3032;49.484;11.112;2023-04-05T09:27:56;16.80;36.40
6008;DHT22;3032;49.484;11.112;2023-04-05T09:30:23;17.20;35.90
6008;DHT22;3032;49.484;11.112;2023-04-05T09:32:52;15.50;36.50
6008;DHT22;3032;49.484;11.112;2023-04-05T09:35:20;15.80;37.50
6008;DHT22;3032;49.484;11.112;2023-04-05T09:37:54;15.40;37.60
6008;DHT22;3032;49.484;11.112;2023-04-05T09:40:21;15.10;38.00
6008;DHT22;3032;49.484;11.112;2023-04-05T09:42:47;13.20;39.20
6008;DHT22;3032;49.484;11.112;2023-04-05T09:45:13;12.60;40.70
6008;DHT22;3032;49.484;11.112;2023-04-05T09:47:39;13.20;42.70
6008;DHT22;3032;49.484;11.112;2023-04-05T09:52:41;11.30;40.30
6008;DHT22;3032;49.484;11.112;2023-04-05T09:55:07;10.90;41.50
6008;DHT22;3032;49.484;11.112;2023-04-05T09:57:36;11.80;43.00
6008;DHT22;3032;49.484;11.112;2023-04-05T10:00:03;12.50;42.70
6008;DHT22;3032;49.484;11.112;2023-04-05T10:02:39;13.10;42.30
6008;DHT22;3032;49.484;11.112;2023-04-05T10:05:09;13.10;41.90
6008;DHT22;3032;49.484;11.112;2023-04-05T10:07:41;12.80;41.40
6008;DHT22;3032;49.484;11.112;2023-04-05T10:10:11;12.50;42.70
6008;DHT22;3032;49.484;11.112;2023-04-05T10:12:38;12.50;40.70
6008;DHT22;3032;49.484;11.112;2023-04-05T10:15:04;12.70;41.90
6008;DHT22;3032;49.484;11.112;2023-04-05T10:17:38;12.90;42.20
6008;DHT22;3032;49.484;11.112;2023-04-05T10:22:59;12.50;40.70
6008;DHT22;3032;49.484;11.112;2023-04-05T10:25:39;12.70;43.20
6008;DHT22;3032;49.484;11.112;2023-04-05T10:33:55;12.80;41.60
6008;DHT22;3032;49.484;11.112;2023-04-05T10:36:44;13.10;41.70
6008;DHT22;3032;49.484;11.112;2023-04-05T10:41:47;13.20;41.10
6008;DHT22;3032;49.484;11.112;2023-04-05T10:44:14;13.00;41.00
6008;DHT22;3032;49.484;11.112;2023-04-05T10:46:40;12.70;41.90
6008;DHT22;3032;49.484;11.112;2023-04-05T10:51:45;12.20;40.00
6008;DHT22;3032;49.484;11.112;2023-04-05T10:54:12;12.60;40.80
6008;DHT22;3032;49.484;11.112;2023-04-05T10:56:39;13.70;40.20
6008;DHT22;3032;49.484;11.112;2023-04-05T10:59:05;14.70;39.40
6008;DHT22;3032;49.484;11.112;2023-04-05T11:01:32;16.50;40.20
6008;DHT22;3032;49.484;11.112;2023-04-05T11:04:18;18.10;37.50
6008;DHT22;3032;49.484;11.112;2023-04-05T11:06:44;19.50;36.70
6008;DHT22;3032;49.484;11.112;2023-04-05T11:09:17;19.40;34.80
6008;DHT22;3032;49.484;11.112;2023-04-05T11:11:46;19.60;34.60
6008;DHT22;3032;49.484;11.112;2023-04-05T11:14:22;20.30;36.00
6008;DHT22;3032;49.484;11.112;2023-04-05T11:16:52;20.60;33.50
6008;DHT22;3032;49.484;11.112;2023-04-05T11:19:19;21.20;33.30
6008;DHT22;3032;49.484;11.112;2023-04-05T11:21:45;19.50;32.00
6008;DHT22;3032;49.484;11.112;2023-04-05T11:24:13;19.70;35.10
6008;DHT22;3032;49.484;11.112;2023-04-05T11:29:14;21.10;33.10
6008;DHT22;3032;49.484;11.112;2023-04-05T11:31:59;20.80;33.80
6008;DHT22;3032;49.484;11.112;2023-04-05T11:34:35;22.40;36.00
6008;DHT22;3032;49.484;11.112;2023-04-05T11:37:00;23.00;33.60
6008;DHT22;3032;49.484;11.112;2023-04-05T11:39:26;23.10;32.50
6008;DHT22;3032;49.484;11.112;2023-04-05T11:42:03;22.40;32.80
6008;DHT22;3032;49.484;11.112;2023-04-05T11:47:07;22.30;35.10
6008;DHT22;3032;49.484;11.112;2023-04-05T11:49:33;22.70;33.80
6008;DHT22;3032;49.484;11.112;2023-04-05T11:52:12;22.70;32.80
6008;DHT22;3032;49.484;11.112;2023-04-05T11:54:37;22.80;34.70
6008;DHT22;3032;49.484;11.112;2023-04-05T11:57:04;22.80;33.50
6008;DHT22;3032;49.484;11.112;2023-04-05T11:59:32;23.10;34.00
6008;DHT22;3032;49.484;11.112;2023-04-05T12:02:02;22.30;31.00
6008;DHT22;3032;49.484;11.112;2023-04-05T12:04:30;20.90;31.90
6008;DHT22;3032;49.484;11.112;2023-04-05T12:07:12;19.80;31.50
6008;DHT22;3032;49.484;11.112;2023-04-05T12:12:38;19.20;34.20
6008;DHT22;3032;49.484;11.112;2023-04-05T12:15:06;19.10;33.50
6008;DHT22;3032;49.484;11.112;2023-04-05T12:17:54;18.30;32.50
6008;DHT22;3032;49.484;11.112;2023-04-05T12:20:21;17.40;34.00
6008;DHT22;3032;49.484;11.112;2023-04-05T12:22:50;15.70;33.10
6008;DHT22;3032;49.484;11.112;2023-04-05T12:25:17;15.60;36.00
6008;DHT22;3032;49.484;11.112;2023-04-05T12:27:43;16.20;37.00
6008;DHT22;3032;49.484;11.112;2023-04-05T12:32:46;16.00;35.40
6008;DHT22;3032;49.484;11.112;2023-04-05T12:35:20;14.20;38.90
6008;DHT22;3032;49.484;11.112;2023-04-05T12:37:46;14.60;37.90
6008;DHT22;3032;49.484;11.112;2023-04-05T12:40:12;13.80;39.20
6008;DHT22;3032;49.484;11.112;2023-04-05T12:42:39;14.30;40.20
6008;DHT22;3032;49.484;11.112;2023-04-05T12:45:06;15.40;38.10
6008;DHT22;3032;49.484;11.112;2023-04-05T12:47:34;15.90;34.50
6008;DHT22;3032;49.484;11.112;2023-04-05T12:50:11;15.40;34.20
6008;DHT22;3032;49.484;11.112;2023-04-05T12:52:36;14.60;34.60
6008;DHT22;3032;49.484;11.112;2023-04-05T12:55:02;14.90;38.50
6008;DHT22;3032;49.484;11.112;2023-04-05T12:57:30;15.00;35.90
6008;DHT22;3032;49.484;11.112;2023-04-05T12:59:56;14.90;36.60
6008;DHT22;3032;49.484;11.112;2023-04-05T13:02:22;14.90;37.00
6008;DHT22;3032;49.484;11.112;2023-04-05T13:04:48;14.70;38.40
6008;DHT22;3032;49.484;11.112;2023-04-05T13:07:13;14.70;37.00
6008;DHT22;3032;49.484;11.112;2023-04-05T13:09:39;15.00;37.80
6008;DHT22;3032;49.484;11.112;2023-04-05T13:12:05;15.30;35.90
6008;DHT22;3032;49.484;11.112;2023-04-05T13:14:30;15.00;36.10
6008;DHT22;3032;49.484;11.112;2023-04-05T13:16:56;14.20;36.30
6008;DHT22;3032;49.484;11.112;2023-04-05T13:19:21;14.10;36.90
6008;DHT22;3032;49.484;11.112;2023-04-05T13:21:47;14.90;38.00
6008;DHT22;3032;49.484;11.112;2023-04-05T13:24:13;16.00;36.10
6008;DHT22;3032;49.484;11.112;2023-04-05T13:26:39;16.40;35.10
6008;DHT22;3032;49.484;11.112;2023-04-05T13:29:04;16.70;35.20
6008;DHT22;3032;49.484;11.112;2023-04-05T13:31:31;17.30;35.50
6008;DHT22;3032;49.484;11.112;2023-04-05T13:33:57;18.00;33.90
6008;DHT22;3032;49.484;11.112;2023-04-05T13:36:23;17.70;32.40
6008;DHT22;3032;49.484;11.112;2023-04-05T13:38:48;17.60;33.50
6008;DHT22;3032;49.484;11.112;2023-04-05T13:41:14;17.60;33.20
6008;DHT22;3032;49.484;11.112;2023-04-05T13:43:40;16.40;34.20
6008;DHT22;3032;49.484;11.112;2023-04-05T13:46:05;17.20;34.20
6008;DHT22;3032;49.484;11.112;2023-04-05T13:48:31;17.80;32.50
6008;DHT22;3032;49.484;11.112;2023-04-05T13:50:56;18.20;33.10
6008;DHT22;3032;49.484;11.112;2023-04-05T13:53:22;18.70;32.70
6008;DHT22;3032;49.484;11.112;2023-04-05T13:55:47;18.90;32.60
6008;DHT22;3032;49.484;11.112;2023-04-05T13:58:13;19.40;32.20
6008;DHT22;3032;49.484;11.112;2023-04-05T14:00:39;20.00;31.80
6008;DHT22;3032;49.484;11.112;2023-04-05T14:03:04;19.80;32.00
6008;DHT22;3032;49.484;11.112;2023-04-05T14:05:30;19.70;33.50
6008;DHT22;3032;49.484;11.112;2023-04-05T14:07:56;19.50;31.50
6008;DHT22;3032;49.484;11.112;2023-04-05T14:10:21;19.60;32.80
6008;DHT22;3032;49.484;11.112;2023-04-05T14:12:48;19.50;32.30
6008;DHT22;3032;49.484;11.112;2023-04-05T14:15:13;19.70;31.30
6008;DHT22;3032;49.484;11.112;2023-04-05T14:17:39;19.60;31.00
6008;DHT22;3032;49.484;11.112;2023-04-05T14:20:05;19.40;31.90
6008;DHT22;3032;49.484;11.112;2023-04-05T14:22:32;19.10;31.50
6008;DHT22;3032;49.484;11.112;2023-04-05T14:24:58;18.80;32.20
6008;DHT22;3032;49.484;11.112;2023-04-05T14:27:23;18.00;33.30
6008;DHT22;3032;49.484;11.112;2023-04-05T14:29:52;17.30;34.00
6008;DHT22;3032;49.484;11.112;2023-04-05T14:32:22;16.60;33.70
6008;DHT22;3032;49.484;11.112;2023-04-05T14:34:47;15.80;34.10
6008;DHT22;3032;49.484;11.112;2023-04-05T14:37:13;15.40;35.90
6008;DHT22;3032;49.484;11.112;2023-04-05T14:39:38;15.20;36.70
6008;DHT22;3032;49.484;11.112;2023-04-05T14:42:04;15.50;36.90
6008;DHT22;3032;49.484;11.112;2023-04-05T14:44:30;16.00;35.90
6008;DHT22;3032;49.484;11.112;2023-04-05T14:46:55;16.40;34.60
6008;DHT22;3032;49.484;11.112;2023-04-05T14:49:21;16.20;34.20
6008;DHT22;3032;49.484;11.112;2023-04-05T14:51:47;15.80;34.90
6008;DHT22;3032;49.484;11.112;2023-04-05T14:54:12;15.50;34.90
6008;DHT22;3032;49.484;11.112;2023-04-05T14:56:38;15.40;35.90
6008;DHT22;3032;49.484;11.112;2023-04-05T14:59:04;15.30;35.00
6008;DHT22;3032;49.484;11.112;2023-04-05T15:01:29;15.20;36.30
6008;DHT22;3032;49.484;11.112;2023-04-05T15:03:56;15.00;36.00
6008;DHT22;3032;49.484;11.112;2023-04-05T15:06:21;15.00;35.20
6008;DHT22;3032;49.484;11.112;2023-04-05T15:08:47;14.70;37.50
6008;DHT22;3032;49.484;11.112;2023-04-05T15:11:13;14.50;35.90
6008;DHT22;3032;49.484;11.112;2023-04-05T15:13:38;14.50;35.30
6008;DHT22;3032;49.484;11.112;2023-04-05T15:16:04;14.30;34.50
6008;DHT22;3032;49.484;11.112;2023-04-05T15:18:30;14.00;36.30
6008;DHT22;3032;49.484;11.112;2023-04-05T15:20:55;13.80;36.50
6008;DHT22;3032;49.484;11.112;2023-04-05T15:23:21;13.90;37.80
6008;DHT22;3032;49.484;11.112;2023-04-05T15:25:47;13.90;38.40
6008;DHT22;3032;49.484;11.112;2023-04-05T15:28:12;13.90;38.00
6008;DHT22;3032;49.484;11.112;2023-04-05T15:30:38;13.70;36.00
6008;DHT22;3032;49.484;11.112;2023-04-05T15:33:04;13.50;37.00
6008;DHT22;3032;49.484;11.112;2023-04-05T15:35:30;13.30;36.00
6008;DHT22;3032;49.484;11.112;2023-04-05T15:37:57;12.90;36.80
6008;DHT22;3032;49.484;11.112;2023-04-05T15:40:23;12.80;39.20
6008;DHT22;3032;49.484;11.112;2023-04-05T15:42:48;13.20;38.70
6008;DHT22;3032;49.484;11.112;2023-04-05T15:45:14;13.20;38.30
6008;DHT22;3032;49.484;11.112;2023-04-05T15:47:39;13.50;38.30
6008;DHT22;3032;49.484;11.112;2023-04-05T15:50:06;13.60;37.40
6008;DHT22;3032;49.484;11.112;2023-04-05T15:52:33;13.50;37.60
6008;DHT22;3032;49.484;11.112;2023-04-05T15:54:59;13.30;37.30
6008;DHT22;3032;49.484;11.112;2023-04-05T15:57:25;13.30;37.30
6008;DHT22;3032;49.484;11.112;2023-04-05T15:59:50;13.50;38.20
6008;DHT22;3032;49.484;11.112;2023-04-05T16:02:18;13.60;38.80
6008;DHT22;3032;49.484;11.112;2023-04-05T16:04:44;13.90;38.20
6008;DHT22;3032;49.484;11.112;2023-04-05T16:07:10;13.40;37.20
6008;DHT22;3032;49.484;11.112;2023-04-05T16:09:36;13.00;38.50
6008;DHT22;3032;49.484;11.112;2023-04-05T16:12:01;13.10;38.70
6008;DHT22;3032;49.484;11.112;2023-04-05T16:14:27;13.20;38.70
6008;DHT22;3032;49.484;11.112;2023-04-05T16:16:53;13.40;38.90
6008;DHT22;3032;49.484;11.112;2023-04-05T16:19:19;13.70;38.50
6008;DHT22;3032;49.484;11.112;2023-04-05T16:21:44;14.00;37.30
6008;DHT22;3032;49.484;11.112;2023-04-05T16:24:10;14.20;37.90
6008;DHT22;3032;49.484;11.112;2023-04-05T16:26:36;14.40;36.60
6008;DHT22;3032;49.484;11.112;2023-04-05T16:29:01;14.30;37.30